Time;durP1;ratioP1;P1;durP2;ratioP2;P2;SDS_P1;SDS_P2;PMS_P1;PMS_P2;Temp;Humidity;BMP_temperature;BMP_pressure;BME280_temperature;BME280_humidity;BME280_pressure;Samples;Min_cycle;Max_cycle;Signal;HPM_P1;HPM_P2
2022/09/30 00:01:46;;;;;;;;;;;;;;;16.95;80.73;94931.69;5053358;28;914;-75
2022/09/30 00:04:13;;;;;;;;;;;;;;;16.92;80.95;94942.06;5053457;28;995;-74
2022/09/30 00:06:39;;;;;;;;;;;;;;;16.84;80.60;94951.19;5053170;28;1012;-75
2022/09/30 00:09:06;;;;;;;;;;;;;;;16.84;80.55;94958.47;5053334;28;1053;-74
2022/09/30 00:11:34;;;;;;;;;;;;;;;16.70;81.10;94952.19;5053480;28;1068;-75
2022/09/30 00:14:00;;;;;;;;;;;;;;;16.55;81.15;94957.75;5035617;28;1084;-74
2022/09/30 00:16:28;;;;;;;;;;;;;;;16.58;80.48;94952.78;5053256;28;1207;-74
2022/09/30 00:18:55;;;;;;;;;;;;;;;16.50;80.23;94938.63;5052809;28;1894;-75
2022/09/30 00:21:22;;;;;;;;;;;;;;;16.47;80.84;94934.47;5035604;28;1052;-74
2022/09/30 00:23:48;;;;;;;;;;;;;;;16.47;81.72;94929.09;5055866;28;1028;-75
2022/09/30 00:26:18;;;;;;;;;;;;;;;16.54;81.31;94929.94;5042249;28;1557;-75
2022/09/30 00:28:48;;;;;;;;;;;;;;;16.61;81.39;94929.13;5059843;28;974;-75
2022/09/30 00:31:15;;;;;;;;;;;;;;;16.58;82.38;94935.75;5059746;28;1056;-72
2022/09/30 00:33:42;;;;;;;;;;;;;;;16.63;82.79;94932.44;5059604;28;1077;-74
2022/09/30 00:36:09;;;;;;;;;;;;;;;16.65;83.17;94935.75;5059674;28;1032;-75
2022/09/30 00:38:35;;;;;;;;;;;;;;;16.79;82.77;94942.88;5059573;28;1913;-75
2022/09/30 00:41:02;;;;;;;;;;;;;;;16.75;83.15;94939.75;5059625;28;1045;-74
2022/09/30 00:43:40;;;;;;;;;;;;;;;16.79;83.45;94948.28;5060122;28;954;-74
2022/09/30 00:46:09;;;;;;;;;;;;;;;16.74;84.33;94948.03;5059655;28;996;-76
2022/09/30 00:48:37;;;;;;;;;;;;;;;16.78;84.14;94946.59;5059793;28;961;-75
2022/09/30 00:51:05;;;;;;;;;;;;;;;16.79;83.09;94948.28;5059620;28;1037;-75
2022/09/30 00:53:49;;;;;;;;;;;;;;;16.86;82.61;94941.03;5059584;28;1071;-75
2022/09/30 00:56:15;;;;;;;;;;;;;;;16.92;83.44;94948.31;5059618;28;1015;-75
2022/09/30 00:58:45;;;;;;;;;;;;;;;16.93;83.24;94946.44;5059351;28;1991;-76
2022/09/30 01:01:13;;;;;;;;;;;;;;;16.93;83.82;94936.47;5059828;28;1088;-75
2022/09/30 01:03:57;;;;;;;;;;;;;;;16.97;83.70;94945.81;5059395;28;1044;-75
2022/09/30 01:06:24;;;;;;;;;;;;;;;17.01;83.91;94937.31;5041838;28;1289;-75
2022/09/30 01:08:50;;;;;;;;;;;;;;;17.08;83.81;94946.25;5059295;28;1084;-75
2022/09/30 01:11:17;;;;;;;;;;;;;;;17.07;84.14;94950.81;5059927;28;1157;-75
2022/09/30 01:13:47;;;;;;;;;;;;;;;17.14;84.12;94958.94;5059563;28;1053;-75
2022/09/30 01:16:22;;;;;;;;;;;;;;;17.12;84.99;94955.59;5059519;28;1210;-74
2022/09/30 01:19:07;;;;;;;;;;;;;;;17.14;85.22;94951.66;5041603;28;1985;-75
2022/09/30 01:21:33;;;;;;;;;;;;;;;17.07;84.64;94949.97;5041598;28;1102;-75
2022/09/30 01:24:05;;;;;;;;;;;;;;;17.00;85.94;94947.28;5059242;28;1008;-75
2022/09/30 01:26:40;;;;;;;;;;;;;;;16.99;85.75;94951.03;5059349;28;1044;-75
2022/09/30 01:29:28;;;;;;;;;;;;;;;17.00;86.47;94951.84;5059404;28;900;-74
2022/09/30 01:32:14;;;;;;;;;;;;;;;17.03;86.22;94957.66;5059278;28;1052;-75
2022/09/30 01:34:49;;;;;;;;;;;;;;;17.11;86.16;94952.09;5057995;28;1123;-75
2022/09/30 01:37:25;;;;;;;;;;;;;;;17.11;86.59;94952.09;5055634;28;1875;-74
2022/09/30 01:40:00;;;;;;;;;;;;;;;17.19;86.33;94959.16;5056075;28;967;-75
2022/09/30 01:42:26;;;;;;;;;;;;;;;17.27;85.78;94966.22;5056109;28;1056;-74
2022/09/30 01:44:52;;;;;;;;;;;;;;;17.31;85.74;94957.47;5038163;28;991;-74
2022/09/30 01:47:24;;;;;;;;;;;;;;;17.26;85.91;94965.38;5056146;28;970;-74
2022/09/30 01:49:55;;;;;;;;;;;;;;;17.22;85.87;94974.94;5038143;28;1048;-74
2022/09/30 01:52:56;;;;;;;;;;;;;;;17.24;86.02;94967.44;5055965;28;1069;-75
2022/09/30 01:55:36;;;;;;;;;;;;;;;17.18;86.90;94976.38;4989092;28;1245;-75
2022/09/30 01:58:13;;;;;;;;;;;;;;;17.20;86.97;94981.59;5047989;28;1910;-75
2022/09/30 02:00:41;;;;;;;;;;;;;;;17.23;86.87;94983.88;5055716;28;976;-75
2022/09/30 02:03:10;;;;;;;;;;;;;;;17.20;87.23;94977.00;5055734;28;954;-74
2022/09/30 02:05:44;;;;;;;;;;;;;;;17.22;87.06;94980.34;5055464;28;988;-74
2022/09/30 02:08:13;;;;;;;;;;;;;;;17.25;87.32;94985.34;5054304;28;1059;-74
2022/09/30 02:10:52;;;;;;;;;;;;;;;17.28;87.76;95003.84;5055528;28;993;-76
2022/09/30 02:13:20;;;;;;;;;;;;;;;17.27;88.06;94994.06;5055616;28;1057;-74
2022/09/30 02:15:50;;;;;;;;;;;;;;;17.26;87.59;95000.50;5055280;28;1221;-74
2022/09/30 02:18:19;;;;;;;;;;;;;;;17.20;88.36;95001.31;5055200;28;1894;-74
2022/09/30 02:20:48;;;;;;;;;;;;;;;17.21;88.16;94997.59;5055135;28;1175;-74
2022/09/30 02:23:34;;;;;;;;;;;;;;;17.20;87.06;94987.00;5054295;28;1072;-74
2022/09/30 02:26:05;;;;;;;;;;;;;;;17.25;86.38;95000.72;5054135;28;997;-76
2022/09/30 02:28:33;;;;;;;;;;;;;;;17.24;86.96;94996.34;5054038;28;1115;-76
2022/09/30 02:31:01;;;;;;;;;;;;;;;17.23;87.34;94992.81;5054893;28;957;-76
2022/09/30 02:33:47;;;;;;;;;;;;;;;17.23;86.85;94986.59;5055008;28;1122;-77
2022/09/30 02:36:30;;;;;;;;;;;;;;;17.24;86.92;94988.25;5054909;28;1161;-76
2022/09/30 02:39:10;;;;;;;;;;;;;;;17.25;86.14;94988.03;5053646;28;1976;-76
2022/09/30 02:41:45;;;;;;;;;;;;;;;17.15;86.45;94990.31;5055047;28;938;-76
2022/09/30 02:44:12;;;;;;;;;;;;;;;17.14;86.93;94996.75;5055028;28;996;-75
2022/09/30 02:46:44;;;;;;;;;;;;;;;17.13;86.97;94992.38;5054349;28;1061;-76
2022/09/30 02:49:17;;;;;;;;;;;;;;;17.15;87.31;94991.16;5054811;28;1035;-75
2022/09/30 02:51:43;;;;;;;;;;;;;;;17.12;87.02;94986.16;5054570;28;1052;-75
2022/09/30 02:54:27;;;;;;;;;;;;;;;17.13;86.96;94990.53;5059644;28;1189;-76
2022/09/30 02:56:53;;;;;;;;;;;;;;;17.16;86.99;95005.47;5074575;28;1045;-77
2022/09/30 02:59:21;;;;;;;;;;;;;;;17.17;87.05;94999.06;5074387;28;1898;-77
2022/09/30 03:01:47;;;;;;;;;;;;;;;17.18;87.36;95003.41;5074293;28;1049;-76
2022/09/30 03:04:15;;;;;;;;;;;;;;;17.11;87.21;95008.81;5074274;28;1005;-76
2022/09/30 03:06:41;;;;;;;;;;;;;;;17.05;87.31;95001.50;5056738;28;968;-76
2022/09/30 03:09:08;;;;;;;;;;;;;;;17.04;87.53;95005.25;5074439;28;1008;-76
2022/09/30 03:11:36;;;;;;;;;;;;;;;17.16;86.90;95024.38;5074286;28;1060;-76
2022/09/30 03:14:14;;;;;;;;;;;;;;;17.18;86.89;95023.13;5074314;28;1002;-76
2022/09/30 03:16:55;;;;;;;;;;;;;;;17.16;87.62;95013.59;5065676;28;1218;-76
2022/09/30 03:19:25;;;;;;;;;;;;;;;17.14;87.59;95011.09;5036384;28;1111;-76
2022/09/30 03:21:51;;;;;;;;;;;;;;;17.16;87.45;95000.06;5054227;28;1014;-77
2022/09/30 03:24:24;;;;;;;;;;;;;;;17.16;87.43;95008.19;5036576;28;1012;-76
2022/09/30 03:26:50;;;;;;;;;;;;;;;17.17;87.34;95012.56;5053899;28;1056;-75
2022/09/30 03:29:17;;;;;;;;;;;;;;;17.15;87.56;95011.94;5053907;28;1020;-77
2022/09/30 03:32:06;;;;;;;;;;;;;;;17.17;87.01;95010.69;5036167;28;1044;-76
2022/09/30 03:34:56;;;;;;;;;;;;;;;17.13;86.98;95013.97;5053758;28;1290;-77
2022/09/30 03:37:30;;;;;;;;;;;;;;;17.07;87.36;95018.34;5026239;28;1991;-78
2022/09/30 03:40:01;;;;;;;;;;;;;;;17.04;87.44;95012.53;5053683;28;1162;-77
2022/09/30 03:42:33;;;;;;;;;;;;;;;17.01;86.78;95013.75;5053757;28;1049;-77
2022/09/30 03:45:01;;;;;;;;;;;;;;;17.03;87.11;95017.09;5053838;28;1055;-76
2022/09/30 03:47:30;;;;;;;;;;;;;;;17.10;86.40;95020.63;5053690;28;1237;-84
2022/09/30 03:49:59;;;;;;;;;;;;;;;17.12;86.29;95032.06;5053570;28;1606;-75
2022/09/30 03:52:26;;;;;;;;;;;;;;;17.12;86.90;95032.06;5053501;28;970;-76
2022/09/30 03:54:54;;;;;;;;;;;;;;;17.12;86.66;95023.16;5059368;28;1116;-75
2022/09/30 03:57:20;;;;;;;;;;;;;;;17.10;87.12;95014.41;5073486;28;1977;-80
2022/09/30 03:59:46;;;;;;;;;;;;;;;17.00;87.19;95016.66;5055170;28;988;-80
2022/09/30 04:02:12;;;;;;;;;;;;;;;16.95;87.13;95023.50;5073371;28;1044;-79
2022/09/30 04:04:40;;;;;;;;;;;;;;;16.95;87.73;95020.81;5073432;28;1007;-80
2022/09/30 04:07:07;;;;;;;;;;;;;;;17.00;87.30;95020.22;5055578;28;956;-79
2022/09/30 04:09:33;;;;;;;;;;;;;;;17.03;87.29;95029.78;5073342;28;1290;-80
2022/09/30 04:11:59;;;;;;;;;;;;;;;17.06;87.22;95023.97;5073460;28;1033;-79
2022/09/30 04:14:25;;;;;;;;;;;;;;;17.05;87.30;95028.50;5055725;28;1020;-78
2022/09/30 04:16:51;;;;;;;;;;;;;;;17.04;87.06;95037.66;5073151;28;1210;-79
2022/09/30 04:19:17;;;;;;;;;;;;;;;17.05;86.95;95039.31;5073176;28;1987;-79
2022/09/30 04:21:43;;;;;;;;;;;;;;;16.95;87.72;95039.72;5055437;28;981;-81
2022/09/30 04:24:09;;;;;;;;;;;;;;;16.95;87.88;95049.69;5073226;28;1053;-75
2022/09/30 04:26:35;;;;;;;;;;;;;;;16.91;88.61;95049.25;5073282;28;1044;-76
2022/09/30 04:29:01;;;;;;;;;;;;;;;16.98;87.88;95046.59;5073189;28;1080;-75
2022/09/30 04:31:27;;;;;;;;;;;;;;;16.96;88.08;95054.06;5073253;28;1037;-75
2022/09/30 04:33:55;;;;;;;;;;;;;;;16.93;87.65;95057.16;5073023;28;1060;-75
2022/09/30 04:36:22;;;;;;;;;;;;;;;16.94;87.42;95073.16;5072955;28;1583;-76
2022/09/30 04:38:49;;;;;;;;;;;;;;;16.93;87.09;95076.91;5073157;28;1987;-76
2022/09/30 04:41:16;;;;;;;;;;;;;;;16.88;87.46;95076.66;5073061;28;1111;-76
2022/09/30 04:43:45;;;;;;;;;;;;;;;16.83;87.66;95073.75;5073095;28;1067;-77
2022/09/30 04:46:12;;;;;;;;;;;;;;;16.93;86.90;95078.78;5072923;28;1499;-77
2022/09/30 04:48:38;;;;;;;;;;;;;;;16.88;87.34;95065.84;5072841;28;1108;-77
2022/09/30 04:51:04;;;;;;;;;;;;;;;16.89;87.52;95072.13;5072916;28;1050;-76
2022/09/30 04:53:30;;;;;;;;;;;;;;;16.86;87.15;95057.13;5072992;28;1037;-76
2022/09/30 04:55:57;;;;;;;;;;;;;;;16.82;87.09;95061.28;5072667;28;1270;-76
2022/09/30 04:58:23;;;;;;;;;;;;;;;16.89;87.05;95064.84;5072868;28;1910;-73
2022/09/30 05:00:50;;;;;;;;;;;;;;;16.83;87.54;95078.28;5072828;28;1064;-69
2022/09/30 05:03:16;;;;;;;;;;;;;;;16.84;87.45;95090.78;5038715;28;1617;-75
2022/09/30 05:05:42;;;;;;;;;;;;;;;16.91;87.45;95099.75;5072707;28;962;-72
2022/09/30 05:08:08;;;;;;;;;;;;;;;16.98;86.13;95095.22;5055034;28;1118;-71
2022/09/30 05:10:34;;;;;;;;;;;;;;;17.03;86.73;95089.19;5075539;28;1036;-76
2022/09/30 05:13:00;;;;;;;;;;;;;;;17.00;86.93;95086.88;5076697;28;1045;-71
2022/09/30 05:15:26;;;;;;;;;;;;;;;16.95;86.56;95084.81;5076598;28;949;-79
2022/09/30 05:17:52;;;;;;;;;;;;;;;17.03;86.31;95091.88;5058018;28;1995;-76
2022/09/30 05:20:19;;;;;;;;;;;;;;;17.03;87.22;95092.72;5056388;28;1049;-75
2022/09/30 05:22:46;;;;;;;;;;;;;;;17.06;86.99;95105.00;5038625;28;1044;-72
2022/09/30 05:25:12;;;;;;;;;;;;;;;17.13;86.77;95106.69;5056296;28;1130;-60
2022/09/30 05:27:38;;;;;;;;;;;;;;;17.17;87.30;95101.72;5056323;28;1070;-75
2022/09/30 05:30:05;;;;;;;;;;;;;;;17.11;86.90;95111.47;5056389;28;1012;-83
2022/09/30 05:32:31;;;;;;;;;;;;;;;17.01;87.78;95120.97;5038463;28;1045;-79
2022/09/30 05:34:57;;;;;;;;;;;;;;;16.92;87.87;95109.50;5056342;28;1015;-75
2022/09/30 05:37:23;;;;;;;;;;;;;;;16.96;87.66;95113.47;5038239;28;1993;-77
2022/09/30 05:39:50;;;;;;;;;;;;;;;17.00;87.23;95119.28;5038377;28;1596;-76
2022/09/30 05:42:16;;;;;;;;;;;;;;;16.98;87.75;95114.94;5038414;28;941;-75
2022/09/30 05:44:42;;;;;;;;;;;;;;;16.97;87.39;95121.34;5055833;28;1040;-75
2022/09/30 05:47:10;;;;;;;;;;;;;;;17.01;86.80;95129.06;5055955;28;996;-74
2022/09/30 05:49:36;;;;;;;;;;;;;;;17.04;86.64;95134.09;5055770;28;1034;-75
2022/09/30 05:52:02;;;;;;;;;;;;;;;17.02;86.41;95131.56;5038192;28;1112;-76
2022/09/30 05:54:28;;;;;;;;;;;;;;;17.02;86.31;95126.19;5041898;28;1188;-76
2022/09/30 05:56:54;;;;;;;;;;;;;;;16.95;86.75;95120.72;5055845;28;962;-76
2022/09/30 05:59:20;;;;;;;;;;;;;;;17.01;87.14;95118.25;5055789;28;1905;-76
2022/09/30 06:01:46;;;;;;;;;;;;;;;17.05;87.03;95123.06;5054339;28;1178;-76
2022/09/30 06:04:12;;;;;;;;;;;;;;;17.06;87.18;95130.13;5054545;28;1449;-75
2022/09/30 06:06:38;;;;;;;;;;;;;;;17.10;86.84;95134.09;5054313;28;1067;-76
2022/09/30 06:09:04;;;;;;;;;;;;;;;17.11;86.98;95134.91;5054305;28;1100;-76
2022/09/30 06:11:31;;;;;;;;;;;;;;;17.10;86.64;95150.28;5054389;28;1032;-75
2022/09/30 06:13:57;;;;;;;;;;;;;;;17.01;87.44;95151.50;5055508;28;1046;-75
2022/09/30 06:16:23;;;;;;;;;;;;;;;17.05;87.56;95168.16;5055330;28;1198;-75
2022/09/30 06:18:49;;;;;;;;;;;;;;;17.12;86.96;95163.59;5055042;28;2022;-76
2022/09/30 06:21:16;;;;;;;;;;;;;;;17.09;86.84;95156.75;5053558;28;977;-76
2022/09/30 06:23:43;;;;;;;;;;;;;;;17.10;86.46;95157.56;5055153;28;1071;-75
2022/09/30 06:26:10;;;;;;;;;;;;;;;17.08;86.92;95163.19;5055165;28;1045;-75
2022/09/30 06:28:36;;;;;;;;;;;;;;;17.08;86.81;95173.16;5053838;28;1088;-75
2022/09/30 06:31:03;;;;;;;;;;;;;;;17.06;86.54;95173.34;5055052;28;1025;-76
2022/09/30 06:33:30;;;;;;;;;;;;;;;17.05;87.07;95170.84;5055088;28;977;-77
2022/09/30 06:35:57;;;;;;;;;;;;;;;17.09;86.57;95172.09;5053798;28;1052;-77
2022/09/30 06:38:23;;;;;;;;;;;;;;;17.14;86.38;95183.16;5055013;28;1969;-77
2022/09/30 06:40:49;;;;;;;;;;;;;;;16.98;85.65;95189.72;5055050;28;974;-74
2022/09/30 06:43:16;;;;;;;;;;;;;;;16.93;86.41;95193.00;5054989;28;1021;-75
2022/09/30 06:45:44;;;;;;;;;;;;;;;17.15;86.60;95190.22;5054649;28;1029;-74
2022/09/30 06:48:10;;;;;;;;;;;;;;;17.12;86.34;95196.84;5054780;28;977;-73
2022/09/30 06:50:37;;;;;;;;;;;;;;;17.16;87.18;95208.09;5054868;28;1004;-73
2022/09/30 06:53:07;;;;;;;;;;;;;;;17.21;85.05;95205.63;5053755;28;1041;-73
2022/09/30 06:55:37;;;;;;;;;;;;;;;17.26;85.91;95200.44;5053376;28;1138;-73
2022/09/30 06:58:10;;;;;;;;;;;;;;;17.27;84.46;95196.72;5053473;28;1975;-73
2022/09/30 07:00:36;;;;;;;;;;;;;;;17.44;84.79;95205.31;5054440;28;1048;-73
2022/09/30 07:03:04;;;;;;;;;;;;;;;17.47;83.90;95201.34;5054486;28;1055;-73
2022/09/30 07:05:31;;;;;;;;;;;;;;;17.47;84.75;95196.81;5054428;28;1333;-73
2022/09/30 07:07:57;;;;;;;;;;;;;;;17.52;84.46;95207.81;5054432;28;966;-74
2022/09/30 07:10:23;;;;;;;;;;;;;;;17.42;85.30;95201.97;5053256;28;1111;-74
2022/09/30 07:12:50;;;;;;;;;;;;;;;17.58;85.03;95203.47;5054335;28;1012;-73
2022/09/30 07:15:18;;;;;;;;;;;;;;;17.66;85.17;95206.00;5052934;28;1484;-73
2022/09/30 07:17:49;;;;;;;;;;;;;;;17.69;85.11;95224.50;5054244;28;1989;-73
2022/09/30 07:20:15;;;;;;;;;;;;;;;17.80;84.36;95228.50;5054371;28;1101;-73
2022/09/30 07:22:41;;;;;;;;;;;;;;;17.88;83.47;95231.03;5054188;28;975;-73
2022/09/30 07:25:08;;;;;;;;;;;;;;;17.91;83.90;95237.94;5052911;28;1064;-73
2022/09/30 07:27:35;;;;;;;;;;;;;;;17.89;84.26;95239.97;5053990;28;1024;-73
2022/09/30 07:30:01;;;;;;;;;;;;;;;17.90;84.07;95237.06;5052819;28;1065;-73
2022/09/30 07:32:27;;;;;;;;;;;;;;;17.96;84.25;95238.13;5053882;28;974;-73
2022/09/30 07:34:53;;;;;;;;;;;;;;;17.90;83.34;95245.19;5053570;28;989;-74
2022/09/30 07:37:20;;;;;;;;;;;;;;;17.83;83.95;95241.63;5053913;28;1981;-75
2022/09/30 07:39:47;;;;;;;;;;;;;;;17.84;84.42;95237.03;5053831;28;1085;-75
2022/09/30 07:42:14;;;;;;;;;;;;;;;17.94;84.63;95238.31;5053736;28;1063;-74
2022/09/30 07:44:43;;;;;;;;;;;;;;;18.25;83.37;95252.31;5053912;28;995;-74
2022/09/30 07:47:13;;;;;;;;;;;;;;;18.33;81.33;95247.56;5053762;28;1048;-74
2022/09/30 07:49:40;;;;;;;;;;;;;;;18.53;81.22;95253.00;5053802;28;1012;-72
2022/09/30 07:52:07;;;;;;;;;;;;;;;18.65;81.04;95258.63;5053712;28;1007;-72
2022/09/30 07:54:33;;;;;;;;;;;;;;;18.98;79.56;95254.25;5053484;28;1233;-73
2022/09/30 07:57:00;;;;;;;;;;;;;;;19.32;78.77;95255.81;5053367;28;1018;-74
2022/09/30 07:59:28;;;;;;;;;;;;;;;20.44;74.41;95264.47;5053619;28;1914;-72
2022/09/30 08:01:54;;;;;;;;;;;;;;;22.00;68.90;95258.13;5035858;28;966;-72
2022/09/30 08:04:20;;;;;;;;;;;;;;;24.83;60.10;95260.66;5053598;28;1038;-71
2022/09/30 08:06:48;;;;;;;;;;;;;;;26.19;54.79;95263.16;5035684;28;999;-71
2022/09/30 08:09:16;;;;;;;;;;;;;;;27.04;51.94;95271.72;5053389;28;970;-71
2022/09/30 08:11:42;;;;;;;;;;;;;;;26.31;54.04;95277.53;5053170;28;1026;-71
2022/09/30 08:14:13;;;;;;;;;;;;;;;24.84;57.00;95273.28;5053573;28;1049;-71
2022/09/30 08:16:39;;;;;;;;;;;;;;;24.27;58.96;95287.78;5053142;28;1194;-71
2022/09/30 08:19:05;;;;;;;;;;;;;;;24.51;59.79;95283.09;5053159;28;1906;-72
2022/09/30 08:21:31;;;;;;;;;;;;;;;24.20;60.14;95289.03;5053162;28;1080;-71
2022/09/30 08:23:57;;;;;;;;;;;;;;;25.26;58.19;95280.25;5035428;28;980;-72
2022/09/30 08:26:23;;;;;;;;;;;;;;;25.84;55.99;95287.09;5053442;28;1004;-71
2022/09/30 08:28:49;;;;;;;;;;;;;;;25.37;56.14;95301.22;5035593;28;1060;-73
2022/09/30 08:31:19;;;;;;;;;;;;;;;26.12;54.73;95293.50;5053336;28;1053;-73
2022/09/30 08:33:46;;;;;;;;;;;;;;;28.55;48.71;95301.47;5053025;28;1111;-71
2022/09/30 08:36:13;;;;;;;;;;;;;;;30.06;44.22;95302.00;5053198;28;970;-72
2022/09/30 08:38:40;;;;;;;;;;;;;;;28.77;46.89;95287.44;5052859;28;1914;-72
2022/09/30 08:41:12;;;;;;;;;;;;;;;28.15;49.49;95283.69;5053031;28;1008;-72
2022/09/30 08:43:50;;;;;;;;;;;;;;;28.76;48.93;95287.72;5053145;28;973;-72
2022/09/30 08:46:28;;;;;;;;;;;;;;;32.63;39.34;95305.50;5056790;28;1024;-71
2022/09/30 08:48:54;;;;;;;;;;;;;;;36.80;32.64;95324.16;5057137;28;1065;-71
2022/09/30 08:51:30;;;;;;;;;;;;;;;38.30;30.29;95337.72;5056946;28;1032;-71
2022/09/30 08:53:58;;;;;;;;;;;;;;;39.62;27.58;95349.81;5059829;28;1212;-73
2022/09/30 08:56:25;;;;;;;;;;;;;;;40.26;26.72;95345.72;5076974;28;1024;-72
2022/09/30 08:58:57;;;;;;;;;;;;;;;40.40;26.47;95339.81;5076744;28;1918;-73
2022/09/30 09:01:23;;;;;;;;;;;;;;;38.94;27.48;95336.78;5059011;28;1052;-72
2022/09/30 09:03:50;;;;;;;;;;;;;;;34.11;34.61;95307.84;5058887;28;978;-76
2022/09/30 09:06:34;;;;;;;;;;;;;;;31.45;40.57;95287.38;5077000;28;1061;-76
2022/09/30 09:09:00;;;;;;;;;;;;;;;33.23;37.78;95297.44;5059033;28;989;-72
2022/09/30 09:11:48;;;;;;;;;;;;;;;33.33;37.51;95295.63;5076739;28;992;-73
2022/09/30 09:14:14;;;;;;;;;;;;;;;35.74;33.57;95308.16;5058909;28;1020;-73
2022/09/30 09:17:01;;;;;;;;;;;;;;;37.78;30.62;95321.13;5068570;28;1210;-73
2022/09/30 09:19:35;;;;;;;;;;;;;;;35.26;33.95;95296.81;5056398;28;1983;-73
2022/09/30 09:22:01;;;;;;;;;;;;;;;31.23;41.03;95274.88;5038675;28;1033;-73
2022/09/30 09:24:39;;;;;;;;;;;;;;;28.58;46.73;95267.88;5056549;28;977;-72
2022/09/30 09:27:16;;;;;;;;;;;;;;;26.83;51.75;95266.03;5056905;28;1813;-73
2022/09/30 09:29:47;;;;;;;;;;;;;;;25.81;54.85;95273.91;5056272;28;1115;-72
2022/09/30 09:32:16;;;;;;;;;;;;;;;25.08;55.05;95264.88;5056231;28;1060;-71
2022/09/30 09:34:43;;;;;;;;;;;;;;;24.83;58.52;95266.13;5056196;28;1077;-73
2022/09/30 09:37:09;;;;;;;;;;;;;;;24.71;58.95;95274.41;5056120;28;988;-73
2022/09/30 09:39:38;;;;;;;;;;;;;;;24.53;59.98;95269.19;5038380;28;1911;-72
2022/09/30 09:42:10;;;;;;;;;;;;;;;24.44;60.35;95267.91;5055976;28;1078;-75
2022/09/30 09:44:52;;;;;;;;;;;;;;;24.37;61.14;95259.84;5055871;28;1568;-72
2022/09/30 09:47:19;;;;;;;;;;;;;;;24.32;61.91;95260.59;5055965;28;1076;-74
2022/09/30 09:49:45;;;;;;;;;;;;;;;24.26;61.26;95252.53;5038122;28;996;-74
2022/09/30 09:52:11;;;;;;;;;;;;;;;24.17;60.95;95247.47;5055848;28;961;-74
2022/09/30 09:54:45;;;;;;;;;;;;;;;24.14;61.37;95253.41;5030192;28;1099;-75
2022/09/30 09:57:16;;;;;;;;;;;;;;;24.15;61.11;95256.97;5034294;28;1121;-75
2022/09/30 09:59:54;;;;;;;;;;;;;;;24.14;62.31;95249.84;5055747;28;1016;-80
2022/09/30 10:02:23;;;;;;;;;;;;;;;24.20;62.55;95245.31;5055534;28;1036;-70
2022/09/30 10:04:58;;;;;;;;;;;;;;;24.20;63.00;95248.88;5055556;28;1053;-76
2022/09/30 10:07:25;;;;;;;;;;;;;;;24.29;63.13;95249.31;5055809;28;950;-73
2022/09/30 10:10:05;;;;;;;;;;;;;;;24.04;63.67;95244.19;5055761;28;1028;-77
2022/09/30 10:12:30;;;;;;;;;;;;;;;24.08;63.15;95245.38;5055589;28;1021;-78
2022/09/30 10:14:58;;;;;;;;;;;;;;;24.09;63.85;95236.09;5055294;28;983;-74
2022/09/30 10:17:35;;;;;;;;;;;;;;;24.02;63.50;95243.59;5055468;28;1962;-76
2022/09/30 10:20:05;;;;;;;;;;;;;;;23.90;63.18;95227.25;5055330;28;1041;-74
2022/09/30 10:22:33;;;;;;;;;;;;;;;24.02;63.18;95232.66;5037745;28;1023;-74
2022/09/30 10:25:09;;;;;;;;;;;;;;;23.92;63.33;95227.84;5055260;28;1028;-73
2022/09/30 10:27:35;;;;;;;;;;;;;;;23.91;63.74;95235.19;5055073;28;1007;-73
2022/09/30 10:30:02;;;;;;;;;;;;;;;24.13;63.65;95235.38;5055385;28;1040;-73
2022/09/30 10:32:28;;;;;;;;;;;;;;;24.29;63.08;95227.47;5037360;28;1109;-75
2022/09/30 10:34:59;;;;;;;;;;;;;;;24.34;62.51;95230.28;5055003;28;1049;-75
2022/09/30 10:37:25;;;;;;;;;;;;;;;24.38;62.35;95225.13;5055004;28;1979;-78
2022/09/30 10:40:00;;;;;;;;;;;;;;;24.39;62.46;95230.34;5037177;28;1002;-76
2022/09/30 10:42:27;;;;;;;;;;;;;;;24.28;63.30;95226.63;5055023;28;1241;-75
2022/09/30 10:44:55;;;;;;;;;;;;;;;24.21;63.86;95222.38;5054719;28;1103;-71
2022/09/30 10:47:25;;;;;;;;;;;;;;;24.19;64.20;95225.38;5054979;28;1055;-75
2022/09/30 10:49:51;;;;;;;;;;;;;;;24.20;62.85;95218.81;5054903;28;1006;-74
2022/09/30 10:52:19;;;;;;;;;;;;;;;24.30;64.95;95219.03;5054813;28;1038;-74
2022/09/30 10:54:48;;;;;;;;;;;;;;;24.42;64.30;95205.28;5064138;28;1082;-76
2022/09/30 10:57:15;;;;;;;;;;;;;;;24.30;64.14;95213.56;5074554;28;1025;-71
2022/09/30 10:59:43;;;;;;;;;;;;;;;24.23;63.61;95220.25;5056962;28;954;-76
2022/09/30 11:02:21;;;;;;;;;;;;;;;24.24;64.03;95214.50;5074532;28;1099;-76
2022/09/30 11:04:53;;;;;;;;;;;;;;;24.17;64.21;95213.84;5056791;28;1025;-78
2022/09/30 11:07:32;;;;;;;;;;;;;;;24.17;64.05;95219.31;5074221;28;1122;-74
2022/09/30 11:10:05;;;;;;;;;;;;;;;24.10;65.69;95218.63;5056800;28;969;-75
2022/09/30 11:12:40;;;;;;;;;;;;;;;24.18;63.59;95215.50;5074901;28;1044;-74
2022/09/30 11:15:12;;;;;;;;;;;;;;;24.19;63.86;95219.06;5074469;28;972;-75
2022/09/30 11:17:47;;;;;;;;;;;;;;;24.16;62.27;95220.38;5040273;28;1910;-75
2022/09/30 11:20:33;;;;;;;;;;;;;;;24.23;61.91;95222.97;5054420;28;992;-75
2022/09/30 11:23:05;;;;;;;;;;;;;;;24.38;59.80;95223.25;5054510;28;960;-75
2022/09/30 11:25:37;;;;;;;;;;;;;;;24.51;59.09;95224.81;5036529;28;962;-75
2022/09/30 11:28:22;;;;;;;;;;;;;;;24.53;60.43;95228.19;5036375;28;976;-74
2022/09/30 11:31:11;;;;;;;;;;;;;;;24.46;60.66;95231.03;5036478;28;1008;-75
2022/09/30 11:33:37;;;;;;;;;;;;;;;24.46;59.80;95239.22;5043351;28;1183;-75
2022/09/30 11:36:10;;;;;;;;;;;;;;;24.45;57.74;95231.28;5053919;28;1137;-75
2022/09/30 11:38:38;;;;;;;;;;;;;;;24.52;59.22;95240.19;5053611;28;2033;-76
2022/09/30 11:41:11;;;;;;;;;;;;;;;24.55;58.47;95236.97;5036132;28;1041;-75
2022/09/30 11:43:55;;;;;;;;;;;;;;;24.49;59.95;95232.44;5053912;28;978;-75
2022/09/30 11:46:33;;;;;;;;;;;;;;;24.54;59.25;95229.84;5053882;28;1058;-75
2022/09/30 11:49:17;;;;;;;;;;;;;;;24.58;58.48;95236.47;5053517;28;1084;-76
2022/09/30 11:51:53;;;;;;;;;;;;;;;24.58;58.38;95233.72;5053775;28;1012;-77
2022/09/30 11:54:19;;;;;;;;;;;;;;;24.65;55.48;95236.31;5055138;28;1238;-77
2022/09/30 11:56:45;;;;;;;;;;;;;;;24.72;53.52;95235.06;5073649;28;978;-77
2022/09/30 11:59:16;;;;;;;;;;;;;;;24.85;55.62;95241.28;5055827;28;1937;-76
2022/09/30 12:01:44;;;;;;;;;;;;;;;24.85;54.14;95231.19;5055618;28;1127;-77
2022/09/30 12:04:13;;;;;;;;;;;;;;;24.81;55.73;95240.13;5055937;28;980;-77
2022/09/30 12:06:43;;;;;;;;;;;;;;;24.71;56.04;95230.66;5073555;28;1033;-78
2022/09/30 12:09:19;;;;;;;;;;;;;;;24.59;55.02;95235.41;5073485;28;1012;-78
2022/09/30 12:11:52;;;;;;;;;;;;;;;24.51;54.57;95239.38;5073396;28;1029;-78
2022/09/30 12:14:22;;;;;;;;;;;;;;;24.50;53.89;95245.03;5073356;28;1092;-78
2022/09/30 12:16:50;;;;;;;;;;;;;;;24.48;54.11;95236.25;5055433;28;1159;-76
2022/09/30 12:19:19;;;;;;;;;;;;;;;24.49;54.72;95238.75;5072628;28;1973;-76
2022/09/30 12:21:56;;;;;;;;;;;;;;;24.46;54.43;95241.97;5055367;28;1075;-76
2022/09/30 12:24:26;;;;;;;;;;;;;;;24.46;55.86;95236.50;5073335;28;1072;-76
2022/09/30 12:26:52;;;;;;;;;;;;;;;24.46;55.04;95238.41;5073159;28;1088;-76
2022/09/30 12:32:15;;;;;;;;;;;;;;;24.48;53.95;95247.19;5073276;28;1313;-77
2022/09/30 12:35:02;;;;;;;;;;;;;;;24.49;53.79;95243.38;5055379;28;1056;-78
2022/09/30 12:37:49;;;;;;;;;;;;;;;24.47;55.13;95248.25;5073352;28;1989;-75
2022/09/30 12:40:39;;;;;;;;;;;;;;;24.39;54.72;95246.75;5073359;28;940;-75
2022/09/30 12:43:24;;;;;;;;;;;;;;;24.33;53.13;95240.38;5073168;28;1109;-74
2022/09/30 12:46:09;;;;;;;;;;;;;;;24.28;53.45;95253.97;5073186;28;942;-75
2022/09/30 12:48:42;;;;;;;;;;;;;;;24.30;51.24;95260.00;5073021;28;1068;-75
2022/09/30 12:51:19;;;;;;;;;;;;;;;24.30;52.45;95262.72;5073149;28;1065;-75
2022/09/30 12:53:49;;;;;;;;;;;;;;;24.35;49.17;95256.53;5072726;28;1045;-73
2022/09/30 12:56:16;;;;;;;;;;;;;;;24.51;48.14;95255.75;5072976;28;1096;-75
2022/09/30 12:58:44;;;;;;;;;;;;;;;24.61;51.24;95257.84;5072986;28;1983;-75
2022/09/30 13:01:11;;;;;;;;;;;;;;;24.67;51.75;95262.31;5073096;28;968;-79
2022/09/30 13:03:50;;;;;;;;;;;;;;;24.65;51.14;95259.00;5055028;28;970;-75
2022/09/30 13:06:17;;;;;;;;;;;;;;;24.63;49.12;95261.16;5072871;28;1046;-77
2022/09/30 13:08:47;;;;;;;;;;;;;;;24.66;50.06;95260.69;5073003;28;990;-78
2022/09/30 13:11:30;;;;;;;;;;;;;;;24.68;51.26;95257.66;5072984;28;954;-76
2022/09/30 13:13:59;;;;;;;;;;;;;;;24.56;50.90;95260.47;5072689;28;1096;-75
2022/09/30 13:16:46;;;;;;;;;;;;;;;24.51;50.82;95257.63;5066704;28;1158;-73
2022/09/30 13:19:20;;;;;;;;;;;;;;;24.41;50.77;95261.00;5052615;28;2004;-75